Ariel, Washington
Current Conditions -  °F | °C
As of 2:15 AM on Thursday 23 Oct 2014 (Local Time) from KKLS Reporting Station
Overcast Overcast  
Wind Chill: 54°   Ceiling: 10000
Heat Index: 54°   Visibility: 10mi
Dew Point: 48°   Wind: 7mph
Humidity: 82%   Direction: 130°SE
Pressure: 29.78"   Gusts: NA
Location:  45.96°N, 122.57°W
Report Text: KKLS 230915Z AUTO 13006KT 080V140 10SM FEW080 OVC100 12/09 A2978 RMK AO1
Loading
Personal Weather Stations






























Interactive Weather Map
Tropical Storm Tracking
New forecast layout! Learn more

10-Day Weather Forecast

Advertisements
Track Severe Weather on mobile